메인 페이지
METAR-TAF:

METAR-TAF

공항 :

이칼루이트, 누나부트, 캐나다

위도: 63-45N, 경도: 068-33W, 고도: 34m

현재 날씨관측

예보는 37분 전, 10:00시(UTC)에 발표되었습니다.
무풍
온도 -22°C
습도 84%
기압 1013 hPa
시정: 8.0km
고도 3500ft 상공 구름 보통
고도 7600ft 상공 구름 많음
약한눈

METAR: CYFB 251000Z 00000KT 5SM -SN SCT035 BKN076 M22/M24 A2990 RMK SC4AC3 SLP132

시각: 06:37 (10:37 UTC)

예보

예보는 18분 전, 10:19시(UTC)에 발표되었습니다.
예보 대상 시간: 25일 10시부터 26일 06시까지 (UTC)
여러 방향의 바람 3kt
시정: 10km
고도 2000ft 상공 구름 보통
고도 6000ft 상공 구름 많음
약한눈
일시적
25일 10시부터 25일 21시까지 (UTC)
시정: 8.0km
고도 2000ft 상공 구름 많음
약한눈
25일 2100시부터 (UTC)
남동10kt
시정: 6.4km
고도 1500ft 상공 구름 많음
고도 4000ft 상공 흐림
약한눈
일시적
25일 21시부터 26일 06시까지 (UTC)
시정: 9.7km
고도 1500ft 상공 구름 보통
고도 4000ft 상공 구름 많음
약한눈

TAF: CYFB 251019Z 2510/2606 VRB03KT P6SM -SN SCT020 BKN060 TEMPO 2510/2521 5SM -SN BKN020 FM252100 14010KT 4SM -SN BKN015 OVC040 TEMPO 2521/2606 6SM -SN SCT015 BKN040 RMK NXT FCST BY 251200Z

4,000개 이상의 공항 관측 자료 및 예보 (METAR 및 TAF 보고).

지도상에서 검색 가능한 기상관측소가 노란 점과 빨간 점으로 표시되어 있습니다.

기상관측소 명을 보려면 표시 위로 마우스를 이동하세요.

날씨 관측과 예보를 보려면 클릭하세요.

지도 변경 : 확대하려면 엑스 표시가 있는 녹색 버튼, 축소하려면 빼기 표시가 있는 녹색 버튼, 다음 페이지의 지도를 보려면 녹색 화살표를 클릭하세요.


METAR-TAF: